CheckWX is a tool to help pilots better visualize weather data.  It is not intended as a substitute for an official pre-flight weather briefing.

07:24:19 UTC

19S METAR
Sublette Municipal Airport
Sublette, Kansas, USA
Current

29 mins ago

K19S 210655Z AUTO 18014G17KT 10SM CLR 20/18 A2991 RMK AO2 T02010183
Observed
Sep-21 @ 06:55 UTC
Wind
  • 180° at 14 KTS
  • Gusting to 17 KTS
Visibility
10 SM
Flight Rules
VFR
Cloud Levels
  • Clear skies
Temperature
20°C / 68°F
Dewpoint
18°C / 64°F
Humidity
88%
Altimeter
29.91" Hg
Pressure
1012.92 hPa
Previous

49 mins ago

K19S 210635Z AUTO 18016G20KT 10SM CLR 20/19 A2990 RMK AO2 T02030185
Observed
Sep-21 @ 06:35 UTC
Wind
  • 180° at 16 KTS
  • Gusting to 20 KTS
Visibility
10 SM
Flight Rules
VFR
Cloud Levels
  • Clear skies
Temperature
20°C / 68°F
Dewpoint
19°C / 66°F
Humidity
94%
Altimeter
29.9" Hg
Pressure
1012.52 hPa
Previous

1 hour ago

K19S 210615Z AUTO 18012KT 10SM CLR 20/19 A2990 RMK AO2 T02050187
Observed
Sep-21 @ 06:15 UTC
Wind
  • 180° at 12 KTS
Visibility
10 SM
Flight Rules
VFR
Cloud Levels
  • Clear skies
Temperature
21°C / 70°F
Dewpoint
19°C / 66°F
Humidity
88%
Altimeter
29.9" Hg
Pressure
1012.52 hPa